Time;durP1;ratioP1;P1;durP2;ratioP2;P2;SDS_P1;SDS_P2;PMS_P1;PMS_P2;Temp;Humidity;BMP_temperature;BMP_pressure;BME280_temperature;BME280_humidity;BME280_pressure;Samples;Min_cycle;Max_cycle;Signal;HPM_P1;HPM_P2
2022/05/16 00:00:52;;;;;;;6.32;3.15;;;;;;;10.08;61.54;98269.88;5103994;27;20413;-67
2022/05/16 00:03:16;;;;;;;5.05;2.10;;;;;;;10.11;61.43;98269.59;5080208;27;20451;-70
2022/05/16 00:05:41;;;;;;;3.83;2.58;;;;;;;10.06;61.60;98256.69;5099027;27;20938;-67
2022/05/16 00:08:06;;;;;;;3.22;2.33;;;;;;;10.12;60.86;98264.13;5098132;27;20031;-67
2022/05/16 00:10:31;;;;;;;3.63;2.38;;;;;;;10.12;60.67;98269.47;5097154;27;20833;-71
2022/05/16 00:12:56;;;;;;;2.63;2.20;;;;;;;10.16;60.71;98267.34;5061054;27;20082;-71
2022/05/16 00:15:24;;;;;;;2.50;1.83;;;;;;;10.17;61.19;98269.03;5097108;27;20043;-71
2022/05/16 00:17:49;;;;;;;5.20;2.53;;;;;;;10.16;60.83;98278.84;5075245;27;20038;-71
2022/05/16 00:20:14;;;;;;;2.95;2.13;;;;;;;10.18;60.58;98276.06;5096092;27;20047;-72
2022/05/16 00:22:39;;;;;;;6.65;1.98;;;;;;;10.20;60.97;98268.78;5077646;27;20043;-73
2022/05/16 00:25:07;;;;;;;2.95;2.10;;;;;;;10.20;61.14;98274.13;5060429;27;20092;-72
2022/05/16 00:27:34;;;;;;;3.55;2.42;;;;;;;10.18;60.96;98270.75;5096315;27;20038;-71
2022/05/16 00:30:06;;;;;;;5.40;2.33;;;;;;;10.20;60.78;98274.13;5108547;27;20584;-71
2022/05/16 00:32:31;;;;;;;2.83;2.13;;;;;;;10.17;61.10;98274.34;5114832;27;20059;-69
2022/05/16 00:34:56;;;;;;;2.67;1.80;;;;;;;10.17;61.11;98263.69;5112138;27;20054;-71
2022/05/16 00:37:21;;;;;;;2.47;2.28;;;;;;;10.14;60.80;98275.50;5114760;27;20015;-73
2022/05/16 00:39:45;;;;;;;2.70;2.00;;;;;;;10.08;61.00;98275.19;5074197;27;20043;-73
2022/05/16 00:42:12;;;;;;;3.95;2.30;;;;;;;10.02;60.91;98273.09;5061798;27;20035;-73
2022/05/16 00:44:38;;;;;;;2.10;1.83;;;;;;;9.92;61.36;98275.78;5078793;27;20110;-66
2022/05/16 00:47:03;;;;;;;4.05;2.13;;;;;;;9.84;61.33;98271.13;5078318;27;20439;-66
2022/05/16 00:49:32;;;;;;;3.08;2.13;;;;;;;9.79;61.76;98264.53;5096890;27;20046;-68
2022/05/16 00:52:04;;;;;;;3.75;2.35;;;;;;;9.72;61.57;98274.03;5078104;27;20039;-68
2022/05/16 00:54:33;;;;;;;4.47;2.25;;;;;;;9.64;61.53;98272.06;5078191;27;20130;-66
2022/05/16 00:57:01;;;;;;;7.45;2.60;;;;;;;9.56;62.16;98274.59;5097464;27;20035;-66
2022/05/16 00:59:39;;;;;;;3.45;2.15;;;;;;;9.52;62.80;98270.50;5078070;27;20055;-65
2022/05/16 01:04:48;;;;;;;2.63;2.13;;;;;;;9.43;62.13;98268.66;5096139;27;20035;-65
2022/05/16 01:07:13;;;;;;;2.50;2.20;;;;;;;9.36;62.76;98275.53;5097056;27;20039;-66
2022/05/16 01:09:38;;;;;;;2.58;1.92;;;;;;;9.30;62.33;98268.91;5061359;27;20047;-67
2022/05/16 01:12:04;;;;;;;3.78;2.60;;;;;;;9.29;62.54;98277.00;5096325;27;20095;-66
2022/05/16 01:14:50;;;;;;;6.88;1.83;;;;;;;9.34;61.69;98286.28;5095999;27;20050;-66
2022/05/16 01:17:15;;;;;;;2.38;2.00;;;;;;;9.28;61.68;98280.66;5096345;27;20069;-66
2022/05/16 01:19:41;;;;;;;1.98;1.77;;;;;;;9.27;61.62;98293.09;5096211;27;20046;-66
2022/05/16 01:22:23;;;;;;;4.45;1.88;;;;;;;9.28;61.27;98291.28;5096012;27;20051;-67
2022/05/16 01:24:49;;;;;;;2.67;1.85;;;;;;;9.28;61.35;98291.28;5095903;27;20206;-65
2022/05/16 01:27:14;;;;;;;3.75;2.53;;;;;;;9.26;60.71;98293.22;5095796;27;20497;-68
2022/05/16 01:29:38;;;;;;;2.13;1.92;;;;;;;9.29;60.96;98298.28;5096005;27;20566;-65
2022/05/16 01:32:04;;;;;;;4.00;2.80;;;;;;;9.31;60.97;98304.31;5095975;27;20559;-67
2022/05/16 01:34:29;;;;;;;3.67;1.80;;;;;;;9.31;60.73;98312.31;5077192;27;20039;-69
2022/05/16 01:36:53;;;;;;;1.40;1.30;;;;;;;9.32;61.12;98304.19;5095124;27;20134;-71
2022/05/16 01:39:19;;;;;;;2.42;2.15;;;;;;;9.32;61.01;98295.38;5095625;27;20043;-69
2022/05/16 01:41:44;;;;;;;2.78;1.70;;;;;;;9.31;61.37;98299.84;5077179;27;20229;-72
2022/05/16 01:44:09;;;;;;;4.25;2.15;;;;;;;9.28;61.23;98304.56;5094587;27;20126;-69
2022/05/16 01:46:39;;;;;;;3.97;1.70;;;;;;;9.27;61.35;98303.75;5094617;27;20050;-69
2022/05/16 01:49:05;;;;;;;6.43;2.13;;;;;;;9.26;60.88;98303.88;5059162;28;20123;-69
2022/05/16 01:51:29;;;;;;;3.95;2.33;;;;;;;9.24;61.42;98308.50;5058964;28;20035;-68
2022/05/16 01:53:55;;;;;;;2.78;1.88;;;;;;;9.22;60.68;98307.78;5095735;27;20099;-70
2022/05/16 01:56:20;;;;;;;3.22;2.00;;;;;;;9.20;61.31;98315.06;5077442;28;20408;-74
2022/05/16 01:58:45;;;;;;;1.15;1.13;;;;;;;9.21;61.75;98308.75;5077343;28;20414;-72
2022/05/16 02:01:12;;;;;;;2.42;2.10;;;;;;;9.19;61.11;98316.88;5076910;28;20126;-70
2022/05/16 02:03:39;;;;;;;1.98;1.60;;;;;;;9.21;61.09;98317.59;5095368;28;20457;-71
2022/05/16 02:06:04;;;;;;;2.15;1.75;;;;;;;9.23;61.00;98314.78;5095254;28;20075;-70
2022/05/16 02:08:29;;;;;;;2.35;1.88;;;;;;;9.23;60.82;98325.44;5095355;28;20074;-70
2022/05/16 02:10:54;;;;;;;3.90;1.95;;;;;;;9.24;61.12;98317.31;5077451;28;20413;-76
2022/05/16 02:13:18;;;;;;;4.38;2.63;;;;;;;9.28;60.72;98320.53;5077738;28;20126;-72
2022/05/16 02:15:44;;;;;;;2.75;1.88;;;;;;;9.25;61.23;98319.00;5079324;27;20059;-71
2022/05/16 02:18:10;;;;;;;3.65;2.13;;;;;;;9.31;61.07;98325.59;5081825;27;20031;-72
2022/05/16 02:20:35;;;;;;;2.45;1.90;;;;;;;9.33;60.73;98321.84;5048569;27;20401;-72
2022/05/16 02:25:47;;;;;;;3.20;1.65;;;;;;;9.39;60.31;98336.41;5081134;27;20035;-72
2022/05/16 02:28:14;;;;;;;1.85;1.33;;;;;;;9.39;60.29;98326.59;5064009;27;20046;-70
2022/05/16 02:30:41;;;;;;;4.38;2.03;;;;;;;9.43;60.41;98325.38;5081036;27;20047;-70
2022/05/16 02:33:06;;;;;;;1.67;1.33;;;;;;;9.45;60.36;98327.91;5099244;27;20505;-68
2022/05/16 02:35:31;;;;;;;3.50;1.90;;;;;;;9.47;59.91;98333.94;5099016;27;20412;-75
2022/05/16 02:37:58;;;;;;;2.10;1.48;;;;;;;9.48;59.46;98324.13;5063404;27;20091;-72
2022/05/16 02:40:23;;;;;;;2.33;1.13;;;;;;;9.47;59.34;98336.59;5099741;27;20051;-72
2022/05/16 02:42:48;;;;;;;2.03;1.60;;;;;;;9.43;59.48;98337.81;5081392;27;20039;-73
2022/05/16 02:45:12;;;;;;;3.42;1.95;;;;;;;9.43;59.23;98335.16;5065061;27;20053;-71
2022/05/16 02:47:37;;;;;;;6.28;2.05;;;;;;;9.44;59.65;98334.19;5100483;27;20035;-71
2022/05/16 02:50:03;;;;;;;3.25;1.95;;;;;;;9.52;59.38;98337.00;5100663;27;20046;-76
2022/05/16 02:52:28;;;;;;;3.40;1.70;;;;;;;9.57;59.37;98337.47;5099086;27;20126;-75
2022/05/16 02:54:52;;;;;;;5.00;1.70;;;;;;;9.59;59.25;98335.50;5080651;27;20134;-75
2022/05/16 02:57:17;;;;;;;4.70;1.50;;;;;;;9.68;58.52;98332.03;5098790;27;20046;-72
2022/05/16 02:59:42;;;;;;;4.90;2.53;;;;;;;9.70;58.58;98338.06;5098718;27;20497;-73
2022/05/16 03:02:09;;;;;;;9.18;2.05;;;;;;;9.73;58.39;98334.28;5080414;27;20497;-71
2022/05/16 03:04:35;;;;;;;3.67;2.17;;;;;;;9.71;58.08;98345.03;5063127;27;20420;-73
2022/05/16 03:07:00;;;;;;;4.70;2.28;;;;;;;9.62;58.19;98337.88;5098420;27;20050;-72
2022/05/16 03:09:26;;;;;;;2.78;1.35;;;;;;;9.57;57.76;98348.09;5080113;27;20062;-71
2022/05/16 03:11:52;;;;;;;1.70;1.35;;;;;;;9.48;58.00;98346.22;5080176;27;20031;-72
2022/05/16 03:14:17;;;;;;;2.97;1.52;;;;;;;9.41;58.00;98342.44;5062968;27;20038;-73
2022/05/16 03:16:41;;;;;;;3.35;1.95;;;;;;;9.36;58.10;98345.50;5097356;28;20382;-72
2022/05/16 03:19:06;;;;;;;1.95;1.55;;;;;;;9.34;58.21;98350.13;5097267;28;20401;-72
2022/05/16 03:21:31;;;;;;;2.63;2.00;;;;;;;9.33;58.23;98352.91;5078917;28;20035;-73
2022/05/16 03:23:57;;;;;;;3.08;1.80;;;;;;;9.33;58.54;98358.22;5097245;28;20091;-71
2022/05/16 03:26:23;;;;;;;2.40;1.77;;;;;;;9.35;58.68;98351.81;5096839;27;20042;-71
2022/05/16 03:28:47;;;;;;;2.40;1.67;;;;;;;9.40;58.66;98351.38;5097343;28;20039;-71
2022/05/16 03:31:12;;;;;;;2.70;1.42;;;;;;;9.57;58.48;98355.25;5078804;28;20046;-72
2022/05/16 03:33:37;;;;;;;1.73;1.40;;;;;;;9.89;57.38;98355.06;5061488;28;20074;-69
2022/05/16 03:36:02;;;;;;;3.08;1.52;;;;;;;10.21;57.02;98346.88;5097500;28;20104;-72
2022/05/16 03:41:11;;;;;;;2.38;1.92;;;;;;;10.76;54.88;98358.63;5079197;28;20054;-71
2022/05/16 03:43:37;;;;;;;2.67;2.00;;;;;;;11.04;54.45;98357.75;5061725;28;20039;-70
2022/05/16 03:46:03;;;;;;;5.97;2.45;;;;;;;11.29;53.52;98354.44;5079565;28;20073;-70
2022/05/16 03:48:28;;;;;;;2.65;1.95;;;;;;;11.55;52.32;98353.78;5082510;28;20400;-72
2022/05/16 03:50:52;;;;;;;4.72;1.75;;;;;;;11.79;51.75;98348.78;5098013;28;20050;-71
2022/05/16 03:53:18;;;;;;;1.90;1.27;;;;;;;11.99;51.42;98346.84;5079960;28;20552;-72
2022/05/16 03:55:42;;;;;;;2.83;1.30;;;;;;;12.20;51.37;98349.22;5061872;28;20441;-71
2022/05/16 03:58:07;;;;;;;5.43;2.15;;;;;;;12.33;50.68;98342.53;5078754;28;20401;-73
2022/05/16 04:00:32;;;;;;;4.97;1.83;;;;;;;12.49;49.90;98344.53;5096551;28;20049;-71
2022/05/16 04:02:56;;;;;;;5.78;1.77;;;;;;;12.62;49.72;98339.63;5096484;28;20505;-70
2022/05/16 04:05:24;;;;;;;2.65;1.40;;;;;;;12.81;49.28;98351.13;5096840;28;20103;-70
2022/05/16 04:07:49;;;;;;;5.75;1.65;;;;;;;12.94;48.02;98339.03;5078102;28;20043;-71
2022/05/16 04:10:15;;;;;;;5.30;1.73;;;;;;;13.07;47.56;98338.63;5081288;28;20043;-65
2022/05/16 04:12:40;;;;;;;2.35;1.27;;;;;;;13.19;47.73;98347.28;5080303;28;20039;-65
2022/05/16 04:15:06;;;;;;;6.47;1.27;;;;;;;13.23;47.01;98340.59;5100295;27;20093;-74
2022/05/16 04:17:31;;;;;;;2.72;1.55;;;;;;;13.44;47.35;98349.06;5097277;27;20501;-65
2022/05/16 04:19:56;;;;;;;4.10;1.60;;;;;;;13.57;46.78;98346.81;5078585;27;20531;-64
2022/05/16 04:22:21;;;;;;;2.50;1.45;;;;;;;13.70;46.20;98349.88;5061642;27;20528;-64
2022/05/16 04:24:46;;;;;;;3.80;1.73;;;;;;;13.82;45.95;98350.44;5096940;27;20438;-63
2022/05/16 04:27:10;;;;;;;5.10;1.85;;;;;;;13.93;44.88;98350.13;5097194;27;20138;-64
2022/05/16 04:29:35;;;;;;;4.20;1.67;;;;;;;14.14;44.52;98347.84;5096962;27;20049;-65
2022/05/16 04:32:00;;;;;;;8.30;2.72;;;;;;;14.33;44.27;98337.88;5061550;27;20035;-65
2022/05/16 04:34:25;;;;;;;3.78;2.00;;;;;;;14.56;43.46;98338.91;5097280;27;20547;-65
2022/05/16 04:36:50;;;;;;;2.05;1.67;;;;;;;14.86;43.34;98351.66;5078723;27;20038;-66
2022/05/16 04:39:14;;;;;;;1.50;1.40;;;;;;;15.26;42.22;98337.34;5078188;27;20051;-66
2022/05/16 04:44:22;;;;;;;1.73;1.30;;;;;;;15.78;41.00;98336.91;5063934;28;20090;-67
2022/05/16 04:46:48;;;;;;;2.47;1.33;;;;;;;16.13;40.23;98334.72;5058847;28;20082;-65
2022/05/16 04:49:13;;;;;;;4.60;2.28;;;;;;;16.48;39.42;98334.16;5076430;28;20091;-65
2022/05/16 04:51:37;;;;;;;5.85;1.60;;;;;;;16.79;38.89;98333.28;5041187;28;20498;-66
2022/05/16 04:54:02;;;;;;;3.42;1.83;;;;;;;17.10;38.02;98333.19;5058516;28;20032;-66
2022/05/16 04:56:27;;;;;;;1.70;1.00;;;;;;;17.47;37.26;98333.16;5057993;28;20050;-64
2022/05/16 04:58:52;;;;;;;1.63;1.52;;;;;;;17.87;36.39;98322.91;5057816;28;20043;-66
2022/05/16 05:01:17;;;;;;;1.45;1.35;;;;;;;18.11;35.92;98331.53;5057996;28;20101;-64
2022/05/16 05:03:42;;;;;;;4.22;2.17;;;;;;;18.29;35.87;98327.56;5076084;28;20383;-64
2022/05/16 05:06:07;;;;;;;2.20;1.77;;;;;;;18.33;35.50;98327.00;5076237;28;20043;-66
2022/05/16 05:08:32;;;;;;;6.93;1.73;;;;;;;18.36;35.40;98336.59;5076082;28;20035;-66
2022/05/16 05:16:24;;;;;;;4.97;2.03;;;;;;;18.71;34.49;98334.91;5079697;28;20119;-66
2022/05/16 05:18:49;;;;;;;3.67;1.65;;;;;;;18.54;34.54;98334.28;5062557;28;20095;-65
2022/05/16 05:21:14;;;;;;;1.10;1.00;;;;;;;18.45;34.66;98335.44;5044144;28;20035;-65
2022/05/16 05:23:40;;;;;;;2.95;1.95;;;;;;;18.43;34.48;98327.53;5063080;28;20083;-66
2022/05/16 05:26:06;;;;;;;1.95;1.27;;;;;;;18.00;34.45;98326.63;5086029;28;20043;-64
2022/05/16 05:28:32;;;;;;;3.08;1.13;;;;;;;17.34;35.26;98332.94;5072309;28;20043;-65
2022/05/16 05:30:57;;;;;;;1.83;1.15;;;;;;;16.78;36.62;98343.22;5047622;28;20039;-65
2022/05/16 05:33:22;;;;;;;1.25;1.20;;;;;;;16.76;36.82;98333.66;5084055;28;20092;-67
2022/05/16 05:35:47;;;;;;;1.30;1.08;;;;;;;17.21;36.01;98324.66;5025291;28;20032;-65
2022/05/16 05:38:11;;;;;;;4.03;1.70;;;;;;;17.42;35.07;98328.28;5059380;28;20050;-65
2022/05/16 05:40:40;;;;;;;1.73;1.02;;;;;;;17.31;35.57;98333.31;5078930;28;20047;-65
2022/05/16 05:43:06;;;;;;;2.35;1.20;;;;;;;17.85;35.25;98335.75;5059295;28;20053;-65
2022/05/16 05:45:32;;;;;;;1.52;0.88;;;;;;;18.43;33.97;98324.81;5060139;28;20040;-65
2022/05/16 05:47:56;;;;;;;2.50;1.75;;;;;;;19.02;33.25;98329.16;5059212;28;20559;-67
2022/05/16 05:50:21;;;;;;;2.35;1.20;;;;;;;19.55;31.86;98325.00;5042570;28;20593;-66
2022/05/16 05:52:46;;;;;;;3.13;1.33;;;;;;;19.42;31.93;98338.38;5058875;28;20052;-65
2022/05/16 05:55:11;;;;;;;3.33;1.25;;;;;;;18.99;32.84;98335.78;5076529;28;20040;-66
2022/05/16 05:57:36;;;;;;;1.80;1.50;;;;;;;18.49;33.65;98336.75;5076300;28;20047;-67
2022/05/16 06:00:01;;;;;;;7.40;1.65;;;;;;;18.08;34.06;98331.06;5058457;28;20040;-66
2022/05/16 06:02:27;;;;;;;5.10;1.27;;;;;;;17.66;34.19;98335.31;5042169;28;20618;-67
2022/05/16 06:04:52;;;;;;;2.33;1.60;;;;;;;17.34;34.64;98336.47;5059834;28;20126;-70
2022/05/16 06:07:17;;;;;;;1.08;0.90;;;;;;;17.05;34.77;98331.84;5080258;28;20044;-71
2022/05/16 06:09:42;;;;;;;4.43;1.40;;;;;;;16.76;34.92;98347.94;5079967;28;20043;-72
2022/05/16 06:12:07;;;;;;;5.72;1.85;;;;;;;16.48;35.78;98352.97;5043424;28;20448;-70
2022/05/16 06:14:33;;;;;;;4.28;2.03;;;;;;;16.93;35.38;98344.09;5079073;28;20566;-72
2022/05/16 06:16:57;;;;;;;2.47;1.98;;;;;;;17.29;34.71;98333.47;5060543;28;20039;-70
2022/05/16 06:19:22;;;;;;;3.65;1.45;;;;;;;17.43;34.37;98337.22;5044176;28;20100;-70
2022/05/16 06:21:49;;;;;;;1.88;1.65;;;;;;;17.49;34.44;98346.44;5064346;28;20073;-71
2022/05/16 06:26:58;;;;;;;1.90;0.93;;;;;;;18.06;32.78;98342.03;5043813;28;20043;-70
2022/05/16 06:29:22;;;;;;;4.15;1.65;;;;;;;18.73;32.41;98344.50;5075351;28;20389;-71
2022/05/16 06:31:47;;;;;;;3.58;1.65;;;;;;;19.84;30.87;98332.88;5056974;28;20047;-71
2022/05/16 06:34:12;;;;;;;5.20;1.73;;;;;;;20.38;28.99;98339.34;5056937;28;20067;-71
2022/05/16 06:36:37;;;;;;;1.92;1.70;;;;;;;21.26;27.96;98340.94;5076064;28;20043;-67
2022/05/16 06:39:01;;;;;;;4.80;1.33;;;;;;;21.41;27.15;98344.28;5075728;28;20573;-67
2022/05/16 06:41:26;;;;;;;3.22;1.10;;;;;;;21.19;27.22;98332.00;5057321;28;20047;-66
2022/05/16 06:43:51;;;;;;;1.60;1.42;;;;;;;20.89;27.59;98342.34;5040059;28;20510;-66
2022/05/16 06:46:15;;;;;;;2.42;1.50;;;;;;;21.28;27.94;98337.00;5039726;28;20490;-65
2022/05/16 06:48:40;;;;;;;2.92;1.42;;;;;;;22.10;26.57;98330.16;5074860;28;20040;-66
2022/05/16 06:51:05;;;;;;;2.28;1.80;;;;;;;22.28;26.09;98343.03;5075024;28;20045;-66
2022/05/16 06:53:31;;;;;;;2.50;1.75;;;;;;;22.80;25.81;98348.19;5075309;28;20447;-68
2022/05/16 06:55:57;;;;;;;4.88;2.78;;;;;;;23.37;24.91;98340.00;5058048;28;20093;-68
2022/05/16 06:58:22;;;;;;;2.28;1.60;;;;;;;24.58;23.94;98340.97;5083166;28;20039;-66
2022/05/16 07:00:47;;;;;;;2.92;1.73;;;;;;;25.44;22.63;98345.09;5083499;28;20458;-69
2022/05/16 07:03:12;;;;;;;3.60;1.55;;;;;;;25.33;22.59;98341.31;5085239;28;20477;-66
2022/05/16 07:05:37;;;;;;;2.20;1.45;;;;;;;24.60;23.41;98332.59;5083039;28;20043;-66
2022/05/16 07:08:02;;;;;;;4.95;1.67;;;;;;;23.47;24.34;98341.19;5083901;28;20038;-67
2022/05/16 07:10:27;;;;;;;3.65;1.48;;;;;;;21.98;25.66;98342.69;5066066;28;20047;-66
2022/05/16 07:12:52;;;;;;;1.08;0.98;;;;;;;20.42;26.83;98341.47;5084759;28;20073;-69
2022/05/16 07:15:19;;;;;;;7.93;2.15;;;;;;;20.00;27.63;98347.06;5064182;28;20067;-69
2022/05/16 07:17:44;;;;;;;3.95;1.58;;;;;;;21.27;26.41;98350.75;5063370;28;20079;-67
2022/05/16 07:20:10;;;;;;;4.22;1.70;;;;;;;22.97;24.71;98345.78;5066432;28;20101;-67
2022/05/16 07:22:34;;;;;;;2.58;1.48;;;;;;;23.91;24.01;98331.13;5061817;28;20051;-66
2022/05/16 07:24:59;;;;;;;5.05;1.58;;;;;;;24.15;23.31;98338.34;5059315;28;20052;-66
2022/05/16 07:30:09;;;;;;;4.97;1.75;;;;;;;22.56;24.50;98354.38;5058720;28;20155;-66
2022/05/16 07:32:43;;;;;;;3.90;2.10;;;;;;;22.15;25.16;98340.34;5039800;28;20490;-65
2022/05/16 07:35:15;;;;;;;4.53;2.00;;;;;;;23.65;23.79;98342.28;5057396;28;20495;-65
2022/05/16 07:37:40;;;;;;;2.35;1.45;;;;;;;24.20;22.80;98343.97;5057394;28;20048;-66
2022/05/16 07:40:07;;;;;;;2.70;2.03;;;;;;;24.87;22.50;98344.75;5039223;28;20043;-66
2022/05/16 07:42:33;;;;;;;5.47;1.95;;;;;;;25.05;21.94;98340.34;5039109;28;20042;-66
2022/05/16 07:44:58;;;;;;;2.45;1.67;;;;;;;25.58;21.37;98345.72;5022324;28;20549;-66
2022/05/16 07:47:23;;;;;;;1.60;1.35;;;;;;;27.74;19.67;98342.03;5056193;28;20067;-65
2022/05/16 07:49:48;;;;;;;4.03;2.10;;;;;;;28.92;18.35;98333.34;5039687;28;20077;-66
2022/05/16 07:52:12;;;;;;;7.07;3.70;;;;;;;28.42;18.13;98345.44;5057420;28;20073;-66
2022/05/16 07:54:37;;;;;;;3.38;2.42;;;;;;;28.47;18.24;98346.28;5039352;28;20064;-66
2022/05/16 07:57:03;;;;;;;3.83;2.15;;;;;;;29.01;17.87;98340.84;5055848;28;20406;-67
2022/05/16 07:59:27;;;;;;;2.55;2.20;;;;;;;29.26;17.48;98334.78;5055653;28;20067;-65
2022/05/16 08:01:52;;;;;;;4.15;1.95;;;;;;;28.93;17.75;98329.53;5055540;28;20078;-66
2022/05/16 08:04:17;;;;;;;2.60;1.80;;;;;;;28.27;18.08;98340.56;5057144;28;20040;-66
2022/05/16 08:06:42;;;;;;;3.83;2.10;;;;;;;27.74;18.45;98341.22;5055400;28;20048;-67
2022/05/16 08:11:50;;;;;;;2.57;2.20;;;;;;;25.88;19.86;98329.22;5056449;28;20148;-66
2022/05/16 08:14:15;;;;;;;3.88;1.98;;;;;;;24.64;21.22;98325.59;5054429;28;20389;-65
2022/05/16 08:16:39;;;;;;;4.20;1.90;;;;;;;23.32;22.33;98334.41;5074953;28;20086;-67
2022/05/16 08:19:04;;;;;;;5.10;1.60;;;;;;;22.05;23.79;98338.09;5058282;28;20043;-68
2022/05/16 08:21:29;;;;;;;4.63;1.73;;;;;;;21.25;25.01;98325.72;5076661;28;20039;-67
2022/05/16 08:23:54;;;;;;;4.20;1.33;;;;;;;20.64;25.64;98328.59;5041619;28;20043;-65
2022/05/16 08:26:19;;;;;;;8.98;1.90;;;;;;;20.93;25.48;98328.19;5058169;28;20589;-66
2022/05/16 08:28:43;;;;;;;2.90;1.52;;;;;;;23.56;22.94;98325.44;5057996;28;20481;-67
2022/05/16 08:31:08;;;;;;;2.17;1.30;;;;;;;26.07;20.32;98317.09;5058060;28;20047;-69
2022/05/16 08:33:35;;;;;;;2.53;1.60;;;;;;;26.72;19.37;98319.47;5057987;28;20097;-70
2022/05/16 08:41:52;;;;;;;2.00;1.63;;;;;;;23.69;21.46;98322.56;5040911;28;20066;-72
2022/05/16 08:44:28;;;;;;;4.05;1.90;;;;;;;22.21;23.17;98320.50;5057476;28;20107;-71
2022/05/16 08:47:11;;;;;;;3.33;1.45;;;;;;;20.99;24.77;98326.56;5058059;28;20047;-70
2022/05/16 08:49:42;;;;;;;4.50;1.70;;;;;;;19.85;26.43;98333.72;5076414;28;20561;-67
2022/05/16 08:52:29;;;;;;;4.90;1.80;;;;;;;19.19;27.72;98339.47;5076011;28;20043;-71
2022/05/16 08:55:17;;;;;;;1.75;0.90;;;;;;;18.82;28.30;98337.94;5075996;28;20039;-71
2022/05/16 08:57:50;;;;;;;4.88;1.92;;;;;;;18.58;28.84;98329.38;5057567;28;20139;-71
2022/05/16 09:00:19;;;;;;;1.52;1.42;;;;;;;18.32;29.64;98328.03;5057678;28;20524;-71
2022/05/16 09:02:45;;;;;;;3.45;1.40;;;;;;;18.16;29.79;98330.13;5076155;28;20086;-71
2022/05/16 09:05:36;;;;;;;2.95;1.33;;;;;;;18.49;29.42;98323.25;5040837;28;20514;-72
2022/05/16 09:08:03;;;;;;;4.15;1.30;;;;;;;18.96;27.91;98321.84;5076135;28;20044;-72
2022/05/16 09:11:09;;;;;;;5.80;1.08;;;;;;;19.79;27.55;98327.22;5057599;28;20126;-71
2022/05/16 09:13:57;;;;;;;2.92;1.80;;;;;;;20.19;26.41;98330.09;4996740;28;20139;-70
2022/05/16 09:16:38;;;;;;;4.28;1.98;;;;;;;20.34;26.08;98322.66;4980086;28;20067;-69
2022/05/16 09:19:08;;;;;;;3.78;1.65;;;;;;;20.85;26.09;98317.59;5013060;28;20139;-66
2022/05/16 09:22:05;;;;;;;2.78;1.63;;;;;;;23.06;23.04;98314.53;4996282;28;20053;-64
2022/05/16 09:24:37;;;;;;;2.25;1.67;;;;;;;25.71;20.68;98312.75;5002313;28;20055;-67
2022/05/16 09:30:14;;;;;;;5.97;1.88;;;;;;;27.31;18.92;98311.78;5016000;28;20048;-66
2022/05/16 09:32:44;;;;;;;2.22;1.67;;;;;;;26.85;19.32;98313.72;4999912;28;20045;-67
2022/05/16 09:35:24;;;;;;;6.32;1.67;;;;;;;26.18;19.76;98310.75;5013218;28;20118;-66
2022/05/16 09:37:53;;;;;;;3.45;1.95;;;;;;;25.14;21.11;98304.28;5014413;28;20503;-69
2022/05/16 09:40:22;;;;;;;1.33;1.25;;;;;;;24.00;22.13;98331.66;5016121;28;20056;-66
2022/05/16 09:42:49;;;;;;;3.17;1.50;;;;;;;23.06;23.23;98327.31;5013665;28;20049;-66
2022/05/16 09:45:22;;;;;;;2.33;1.55;;;;;;;22.14;24.47;98323.22;4996500;28;20048;-66
2022/05/16 09:47:47;;;;;;;5.72;1.95;;;;;;;20.80;25.92;98321.94;5042451;28;20078;-65
2022/05/16 09:50:24;;;;;;;1.90;1.20;;;;;;;20.11;27.48;98336.50;5056979;28;20072;-65
2022/05/16 09:52:52;;;;;;;2.30;1.27;;;;;;;19.28;27.69;98340.19;5040687;28;20509;-67
2022/05/16 09:55:27;;;;;;;3.60;1.67;;;;;;;18.93;28.50;98333.88;5057300;28;20122;-64
2022/05/16 09:58:30;;;;;;;1.40;1.30;;;;;;;18.47;28.70;98331.53;5056715;28;20510;-66
2022/05/16 10:01:05;;;;;;;3.08;1.52;;;;;;;18.47;28.92;98330.69;4996273;28;20057;-66
2022/05/16 10:03:30;;;;;;;;;;;;;;;18.76;28.09;98348.66;5013077;28;20511;-67
2022/05/16 10:05:57;;;;;;;3.13;1.23;;;;;;;18.59;28.13;98344.53;5012695;28;20418;-70
2022/05/16 10:08:30;;;;;;;12.13;1.92;;;;;;;18.46;28.22;98343.34;5012857;28;20044;-72
2022/05/16 10:10:59;;;;;;;15.48;2.83;;;;;;;17.82;30.67;98366.63;4996356;28;20135;-73
2022/05/16 10:13:25;;;;;;;5.60;1.30;;;;;;;17.18;30.59;98366.25;5012784;28;20040;-72
2022/05/16 10:15:54;;;;;;;1.23;1.13;;;;;;;16.80;32.03;98373.50;4997084;28;20053;-72
2022/05/16 10:18:22;;;;;;;1.80;1.10;;;;;;;16.23;33.68;98376.50;5013164;28;20464;-72
2022/05/16 10:20:53;;;;;;;2.72;0.90;;;;;;;15.79;35.23;98378.06;5012367;28;20056;-70
2022/05/16 10:23:32;;;;;;;1.42;1.15;;;;;;;15.58;36.16;98371.38;4996012;28;20051;-70
2022/05/16 10:26:07;;;;;;;1.95;1.40;;;;;;;15.26;37.87;98374.09;4979393;28;20037;-69
2022/05/16 10:28:37;;;;;;;1.98;1.05;;;;;;;15.02;38.66;98368.75;5012532;28;20095;-72
2022/05/16 10:33:49;;;;;;;5.30;2.28;;;;;;;15.15;39.12;98363.72;5014237;28;20404;-70
2022/05/16 10:36:25;;;;;;;3.72;2.33;;;;;;;15.44;38.23;98355.13;5075767;28;20045;-69
2022/05/16 10:39:00;;;;;;;2.65;1.98;;;;;;;15.80;37.62;98360.94;5060810;28;20044;-69
2022/05/16 10:41:35;;;;;;;7.25;2.63;;;;;;;16.08;36.89;98356.75;5061065;28;20035;-71
2022/05/16 10:44:11;;;;;;;6.03;2.30;;;;;;;16.20;37.25;98367.94;5079394;28;20051;-70
2022/05/16 10:46:42;;;;;;;3.35;2.28;;;;;;;15.88;37.62;98385.06;5079278;28;20127;-70
2022/05/16 10:49:19;;;;;;;2.20;1.52;;;;;;;15.64;39.52;98377.94;5044553;28;20040;-70
2022/05/16 10:52:04;;;;;;;2.00;1.15;;;;;;;14.99;41.51;98378.00;5079305;28;20142;-70
2022/05/16 10:54:32;;;;;;;1.27;1.13;;;;;;;13.96;43.50;98405.25;5064831;28;20126;-68
2022/05/16 10:57:24;;;;;;;1.10;1.10;;;;;;;13.42;46.95;98392.09;5082728;28;20062;-68
2022/05/16 11:00:06;;;;;;;2.05;0.95;;;;;;;12.92;48.39;98373.13;5079865;28;20054;-69
2022/05/16 11:02:31;;;;;;;3.08;1.58;;;;;;;12.44;49.08;98357.50;5062930;28;20100;-68
2022/05/16 11:05:38;;;;;;;4.10;1.60;;;;;;;12.46;48.39;98358.19;5080964;28;20039;-68
2022/05/16 11:08:26;;;;;;;2.70;1.58;;;;;;;12.41;50.90;98357.81;5018774;28;20106;-64
2022/05/16 11:11:12;;;;;;;2.22;1.15;;;;;;;12.76;50.36;98356.09;5016217;28;20041;-64
2022/05/16 11:13:59;;;;;;;2.78;1.42;;;;;;;13.18;50.28;98351.78;5015923;28;20049;-64
2022/05/16 11:16:27;;;;;;;7.78;2.20;;;;;;;13.75;49.53;98350.25;5015446;28;20121;-64
2022/05/16 11:18:53;;;;;;;3.75;1.65;;;;;;;14.30;49.46;98356.94;5015944;28;20053;-64
2022/05/16 11:21:36;;;;;;;2.92;1.70;;;;;;;14.78;47.73;98348.16;5016143;28;20519;-65
2022/05/16 11:24:25;;;;;;;3.00;1.85;;;;;;;14.81;49.17;98335.22;5015947;28;20045;-63
2022/05/16 11:27:00;;;;;;;1.77;1.50;;;;;;;14.68;48.27;98334.03;5029728;28;20044;-64
2022/05/16 11:29:39;;;;;;;3.22;1.92;;;;;;;14.57;47.68;98335.22;5018184;28;20139;-65
2022/05/16 11:32:34;;;;;;;4.40;1.85;;;;;;;14.56;47.97;98328.16;5035596;28;20546;-63
2022/05/16 11:35:12;;;;;;;3.85;1.60;;;;;;;14.53;47.30;98324.00;5035540;28;20044;-63
2022/05/16 11:38:03;;;;;;;5.78;1.67;;;;;;;14.53;43.93;98318.63;5019061;28;20093;-70
2022/05/16 11:40:52;;;;;;;3.95;1.58;;;;;;;14.50;40.85;98318.13;5003879;28;20036;-64
2022/05/16 11:43:20;;;;;;;1.67;1.38;;;;;;;14.54;41.78;98314.13;5015088;28;20043;-63
2022/05/16 11:46:10;;;;;;;3.00;1.67;;;;;;;14.61;41.29;98314.28;5090511;27;20043;-64
2022/05/16 11:48:43;;;;;;;1.17;0.98;;;;;;;14.64;42.83;98320.16;5077425;27;20379;-66
2022/05/16 11:51:08;;;;;;;1.30;1.20;;;;;;;14.78;43.36;98315.97;5044783;27;20417;-64
2022/05/16 11:53:50;;;;;;;2.45;1.50;;;;;;;14.96;42.99;98316.59;5096938;27;20405;-63
2022/05/16 12:02:20;;;;;;;2.17;1.33;;;;;;;14.51;40.37;98352.00;5052477;27;20047;-64
2022/05/16 12:04:49;;;;;;;1.05;1.05;;;;;;;14.33;39.95;98352.09;5095405;27;20382;-64
2022/05/16 12:07:21;;;;;;;2.75;0.85;;;;;;;14.21;39.79;98356.09;5096130;27;20394;-63
2022/05/16 12:10:12;;;;;;;0.90;0.90;;;;;;;14.22;40.76;98346.22;5078068;27;20031;-63
2022/05/16 12:12:40;;;;;;;1.05;0.98;;;;;;;14.18;41.31;98349.22;5046923;27;20039;-65
2022/05/16 12:15:24;;;;;;;1.50;1.40;;;;;;;14.31;40.84;98350.59;5077662;27;20058;-64
2022/05/16 12:17:51;;;;;;;1.50;1.10;;;;;;;14.33;40.12;98343.22;5095929;27;20053;-65
2022/05/16 12:20:32;;;;;;;3.47;1.00;;;;;;;14.45;39.90;98342.75;5074828;27;20031;-65
2022/05/16 12:22:57;;;;;;;2.13;1.27;;;;;;;14.48;39.36;98338.91;5095112;27;20069;-63
2022/05/16 12:25:25;;;;;;;5.43;1.92;;;;;;;14.48;39.49;98331.69;5061309;27;20070;-65